sensor_id;sensor_type;location;lat;lon;timestamp;pressure;altitude;pressure_sealevel;temperature;humidity
67803;BME280;72185;51.378;-1.342;2023-08-30T00:01:30;99593.41;;;20.62;37.78
67803;BME280;72185;51.378;-1.342;2023-08-30T00:03:56;99593.45;;;20.26;38.23
67803;BME280;72185;51.378;-1.342;2023-08-30T00:06:21;99591.39;;;20.36;38.11
67803;BME280;72185;51.378;-1.342;2023-08-30T00:08:47;99587.63;;;20.56;37.83
67803;BME280;72185;51.378;-1.342;2023-08-30T00:11:13;99586.93;;;20.33;38.10
67803;BME280;72185;51.378;-1.342;2023-08-30T00:13:38;99584.70;;;20.18;38.30
67803;BME280;72185;51.378;-1.342;2023-08-30T00:16:03;99582.47;;;20.20;38.30
67803;BME280;72185;51.378;-1.342;2023-08-30T00:18:29;99586.03;;;20.30;38.18
67803;BME280;72185;51.378;-1.342;2023-08-30T00:20:54;99582.84;;;20.17;38.31
67803;BME280;72185;51.378;-1.342;2023-08-30T00:23:20;99585.80;;;20.15;38.34
67803;BME280;72185;51.378;-1.342;2023-08-30T00:25:45;99586.36;;;20.23;37.93
67803;BME280;72185;51.378;-1.342;2023-08-30T00:28:10;99586.90;;;20.30;38.09
67803;BME280;72185;51.378;-1.342;2023-08-30T00:30:36;99585.89;;;20.18;38.30
67803;BME280;72185;51.378;-1.342;2023-08-30T00:33:02;99584.07;;;20.12;38.33
67803;BME280;72185;51.378;-1.342;2023-08-30T00:35:27;99582.69;;;19.91;38.64
67803;BME280;72185;51.378;-1.342;2023-08-30T00:37:52;99582.36;;;20.11;38.31
67803;BME280;72185;51.378;-1.342;2023-08-30T00:40:18;99580.12;;;20.48;37.87
67803;BME280;72185;51.378;-1.342;2023-08-30T00:42:43;99574.05;;;20.28;38.11
67803;BME280;72185;51.378;-1.342;2023-08-30T00:45:09;99569.23;;;20.14;38.29
67803;BME280;72185;51.378;-1.342;2023-08-30T00:47:34;99566.45;;;20.28;38.41
67803;BME280;72185;51.378;-1.342;2023-08-30T00:50:00;99565.47;;;20.37;38.24
67803;BME280;72185;51.378;-1.342;2023-08-30T00:52:25;99564.63;;;20.25;38.14
67803;BME280;72185;51.378;-1.342;2023-08-30T00:54:50;99564.20;;;19.80;38.72
67803;BME280;72185;51.378;-1.342;2023-08-30T00:57:16;99563.78;;;20.08;38.32
67803;BME280;72185;51.378;-1.342;2023-08-30T00:59:41;99562.20;;;20.01;38.40
67803;BME280;72185;51.378;-1.342;2023-08-30T01:02:07;99559.68;;;20.26;38.36
67803;BME280;72185;51.378;-1.342;2023-08-30T01:04:32;99554.96;;;19.60;38.92
67803;BME280;72185;51.378;-1.342;2023-08-30T01:06:57;99558.60;;;20.16;38.45
67803;BME280;72185;51.378;-1.342;2023-08-30T01:09:24;99561.29;;;20.38;37.79
67803;BME280;72185;51.378;-1.342;2023-08-30T01:11:54;99563.53;;;20.33;38.18
67803;BME280;72185;51.378;-1.342;2023-08-30T01:14:16;99569.71;;;19.86;38.50
67803;BME280;72185;51.378;-1.342;2023-08-30T01:16:39;99573.69;;;19.85;38.51
67803;BME280;72185;51.378;-1.342;2023-08-30T01:19:14;99567.16;;;19.72;38.67
67803;BME280;72185;51.378;-1.342;2023-08-30T01:21:38;99564.10;;;19.64;38.76
67803;BME280;72185;51.378;-1.342;2023-08-30T01:23:59;99567.02;;;20.17;38.01
67803;BME280;72185;51.378;-1.342;2023-08-30T01:26:26;99565.66;;;20.14;38.02
67803;BME280;72185;51.378;-1.342;2023-08-30T01:28:46;99564.22;;;20.20;38.21
67803;BME280;72185;51.378;-1.342;2023-08-30T01:31:12;99565.08;;;20.33;38.00
67803;BME280;72185;51.378;-1.342;2023-08-30T01:33:38;99569.45;;;20.03;38.06
67803;BME280;72185;51.378;-1.342;2023-08-30T01:36:03;99564.67;;;20.16;38.17
67803;BME280;72185;51.378;-1.342;2023-08-30T01:38:29;99563.21;;;20.04;38.02
67803;BME280;72185;51.378;-1.342;2023-08-30T01:40:55;99565.55;;;20.10;37.86
67803;BME280;72185;51.378;-1.342;2023-08-30T01:43:20;99565.38;;;20.03;37.96
67803;BME280;72185;51.378;-1.342;2023-08-30T01:45:45;99567.12;;;20.15;38.13
67803;BME280;72185;51.378;-1.342;2023-08-30T01:48:12;99565.49;;;19.89;38.15
67803;BME280;72185;51.378;-1.342;2023-08-30T01:50:37;99567.46;;;19.92;38.42
67803;BME280;72185;51.378;-1.342;2023-08-30T01:53:03;99569.24;;;20.25;37.80
67803;BME280;72185;51.378;-1.342;2023-08-30T01:55:28;99569.82;;;19.88;38.01
67803;BME280;72185;51.378;-1.342;2023-08-30T01:57:52;99570.43;;;20.22;37.89
67803;BME280;72185;51.378;-1.342;2023-08-30T02:00:17;99575.84;;;19.86;38.07
67803;BME280;72185;51.378;-1.342;2023-08-30T02:02:43;99576.02;;;20.01;38.15
67803;BME280;72185;51.378;-1.342;2023-08-30T02:05:08;99572.18;;;19.72;38.19
67803;BME280;72185;51.378;-1.342;2023-08-30T02:07:39;99571.68;;;19.70;38.23
67803;BME280;72185;51.378;-1.342;2023-08-30T02:10:02;99572.36;;;19.63;38.19
67803;BME280;72185;51.378;-1.342;2023-08-30T02:12:27;99576.51;;;20.47;37.33
67803;BME280;72185;51.378;-1.342;2023-08-30T02:14:50;99574.46;;;20.16;37.46
67803;BME280;72185;51.378;-1.342;2023-08-30T02:17:16;99574.07;;;19.89;37.76
67803;BME280;72185;51.378;-1.342;2023-08-30T02:19:41;99571.55;;;19.85;37.88
67803;BME280;72185;51.378;-1.342;2023-08-30T02:22:06;99567.69;;;19.87;38.08
67803;BME280;72185;51.378;-1.342;2023-08-30T02:24:32;99568.33;;;19.70;38.35
67803;BME280;72185;51.378;-1.342;2023-08-30T02:26:57;99568.56;;;19.78;38.19
67803;BME280;72185;51.378;-1.342;2023-08-30T02:29:23;99566.74;;;20.37;37.73
67803;BME280;72185;51.378;-1.342;2023-08-30T02:31:48;99567.22;;;19.73;37.83
67803;BME280;72185;51.378;-1.342;2023-08-30T02:34:14;99569.76;;;20.06;37.61
67803;BME280;72185;51.378;-1.342;2023-08-30T02:36:39;99570.05;;;19.95;37.47
67803;BME280;72185;51.378;-1.342;2023-08-30T02:39:05;99568.96;;;19.97;37.51
67803;BME280;72185;51.378;-1.342;2023-08-30T02:41:30;99567.61;;;19.94;37.80
67803;BME280;72185;51.378;-1.342;2023-08-30T02:43:55;99563.79;;;19.67;37.78
67803;BME280;72185;51.378;-1.342;2023-08-30T02:46:21;99560.54;;;19.79;37.69
67803;BME280;72185;51.378;-1.342;2023-08-30T02:48:46;99558.74;;;19.71;37.60
67803;BME280;72185;51.378;-1.342;2023-08-30T02:51:12;99558.71;;;19.83;37.59
67803;BME280;72185;51.378;-1.342;2023-08-30T02:53:37;99555.60;;;19.79;37.50
67803;BME280;72185;51.378;-1.342;2023-08-30T02:56:03;99556.72;;;20.04;37.23
67803;BME280;72185;51.378;-1.342;2023-08-30T02:58:28;99551.49;;;19.73;37.57
67803;BME280;72185;51.378;-1.342;2023-08-30T03:00:53;99550.39;;;19.73;37.49
67803;BME280;72185;51.378;-1.342;2023-08-30T03:03:19;99554.30;;;20.35;36.91
67803;BME280;72185;51.378;-1.342;2023-08-30T03:05:44;99552.05;;;19.92;37.14
67803;BME280;72185;51.378;-1.342;2023-08-30T03:08:10;99551.59;;;20.14;37.20
67803;BME280;72185;51.378;-1.342;2023-08-30T03:10:35;99550.15;;;20.19;37.12
67803;BME280;72185;51.378;-1.342;2023-08-30T03:13:01;99550.01;;;20.40;36.86
67803;BME280;72185;51.378;-1.342;2023-08-30T03:15:26;99547.98;;;20.24;36.96
67803;BME280;72185;51.378;-1.342;2023-08-30T03:17:51;99548.95;;;20.04;37.29
67803;BME280;72185;51.378;-1.342;2023-08-30T03:20:17;99544.76;;;20.20;36.90
67803;BME280;72185;51.378;-1.342;2023-08-30T03:22:42;99544.19;;;20.07;37.15
67803;BME280;72185;51.378;-1.342;2023-08-30T03:25:08;99541.59;;;20.35;36.81
67803;BME280;72185;51.378;-1.342;2023-08-30T03:27:33;99539.73;;;19.98;37.14
67803;BME280;72185;51.378;-1.342;2023-08-30T03:29:59;99539.48;;;20.06;37.01
67803;BME280;72185;51.378;-1.342;2023-08-30T03:32:24;99537.22;;;20.08;37.07
67803;BME280;72185;51.378;-1.342;2023-08-30T03:34:50;99536.90;;;20.21;36.82
67803;BME280;72185;51.378;-1.342;2023-08-30T03:37:15;99536.58;;;20.56;36.45
67803;BME280;72185;51.378;-1.342;2023-08-30T03:39:41;99539.23;;;20.14;36.71
67803;BME280;72185;51.378;-1.342;2023-08-30T03:42:06;99541.19;;;20.29;36.53
67803;BME280;72185;51.378;-1.342;2023-08-30T03:44:32;99538.72;;;20.27;36.99
67803;BME280;72185;51.378;-1.342;2023-08-30T03:46:57;99533.98;;;19.67;37.43
67803;BME280;72185;51.378;-1.342;2023-08-30T03:49:23;99534.86;;;20.04;36.94
67803;BME280;72185;51.378;-1.342;2023-08-30T03:51:48;99528.36;;;19.66;36.93
67803;BME280;72185;51.378;-1.342;2023-08-30T03:54:13;99527.09;;;20.02;36.87
67803;BME280;72185;51.378;-1.342;2023-08-30T03:56:39;99527.74;;;19.89;36.67
67803;BME280;72185;51.378;-1.342;2023-08-30T03:59:04;99529.02;;;20.08;36.64
67803;BME280;72185;51.378;-1.342;2023-08-30T04:01:30;99531.37;;;19.94;36.73
67803;BME280;72185;51.378;-1.342;2023-08-30T04:03:55;99535.84;;;20.10;36.59
67803;BME280;72185;51.378;-1.342;2023-08-30T04:06:21;99538.39;;;20.48;36.33
67803;BME280;72185;51.378;-1.342;2023-08-30T04:08:46;99541.97;;;20.03;36.37
67803;BME280;72185;51.378;-1.342;2023-08-30T04:11:12;99539.15;;;20.40;36.22
67803;BME280;72185;51.378;-1.342;2023-08-30T04:13:37;99540.44;;;20.60;35.97
67803;BME280;72185;51.378;-1.342;2023-08-30T04:16:03;99545.54;;;19.81;36.46
67803;BME280;72185;51.378;-1.342;2023-08-30T04:18:28;99548.29;;;20.13;36.59
67803;BME280;72185;51.378;-1.342;2023-08-30T04:20:53;99542.12;;;19.93;36.71
67803;BME280;72185;51.378;-1.342;2023-08-30T04:23:19;99545.26;;;20.31;36.60
67803;BME280;72185;51.378;-1.342;2023-08-30T04:25:45;99548.53;;;20.11;36.28
67803;BME280;72185;51.378;-1.342;2023-08-30T04:28:10;99541.85;;;20.15;36.74
67803;BME280;72185;51.378;-1.342;2023-08-30T04:30:36;99545.48;;;20.13;36.55
67803;BME280;72185;51.378;-1.342;2023-08-30T04:33:01;99539.82;;;19.92;36.46
67803;BME280;72185;51.378;-1.342;2023-08-30T04:35:26;99538.86;;;20.01;36.48
67803;BME280;72185;51.378;-1.342;2023-08-30T04:37:52;99537.79;;;19.85;36.32
67803;BME280;72185;51.378;-1.342;2023-08-30T04:40:17;99536.16;;;20.14;36.62
67803;BME280;72185;51.378;-1.342;2023-08-30T04:42:42;99539.03;;;19.72;37.25
67803;BME280;72185;51.378;-1.342;2023-08-30T04:45:08;99541.31;;;20.59;36.00
67803;BME280;72185;51.378;-1.342;2023-08-30T04:47:33;99541.94;;;19.83;36.52
67803;BME280;72185;51.378;-1.342;2023-08-30T04:49:59;99545.97;;;19.96;36.44
67803;BME280;72185;51.378;-1.342;2023-08-30T04:52:24;99552.23;;;20.16;36.34
67803;BME280;72185;51.378;-1.342;2023-08-30T04:54:50;99552.63;;;20.18;36.19
67803;BME280;72185;51.378;-1.342;2023-08-30T04:57:16;99552.61;;;19.77;36.45
67803;BME280;72185;51.378;-1.342;2023-08-30T04:59:41;99552.29;;;20.05;36.47
67803;BME280;72185;51.378;-1.342;2023-08-30T05:02:06;99554.95;;;20.07;36.52
67803;BME280;72185;51.378;-1.342;2023-08-30T05:04:32;99554.66;;;20.06;36.31
67803;BME280;72185;51.378;-1.342;2023-08-30T05:06:57;99554.91;;;20.47;36.03
67803;BME280;72185;51.378;-1.342;2023-08-30T05:09:23;99549.65;;;20.11;36.18
67803;BME280;72185;51.378;-1.342;2023-08-30T05:11:48;99551.39;;;20.49;35.71
67803;BME280;72185;51.378;-1.342;2023-08-30T05:14:13;99554.97;;;20.17;36.21
67803;BME280;72185;51.378;-1.342;2023-08-30T05:16:39;99554.48;;;20.43;35.91
67803;BME280;72185;51.378;-1.342;2023-08-30T05:19:04;99556.84;;;20.24;35.78
67803;BME280;72185;51.378;-1.342;2023-08-30T05:21:30;99557.75;;;20.06;36.12
67803;BME280;72185;51.378;-1.342;2023-08-30T05:23:55;99555.35;;;20.10;36.08
67803;BME280;72185;51.378;-1.342;2023-08-30T05:26:21;99554.88;;;20.19;36.23
67803;BME280;72185;51.378;-1.342;2023-08-30T05:28:46;99552.96;;;20.13;36.06
67803;BME280;72185;51.378;-1.342;2023-08-30T05:31:11;99556.06;;;19.89;36.07
67803;BME280;72185;51.378;-1.342;2023-08-30T05:33:37;99557.77;;;20.32;35.72
67803;BME280;72185;51.378;-1.342;2023-08-30T05:36:03;99555.90;;;20.04;36.02
67803;BME280;72185;51.378;-1.342;2023-08-30T05:38:28;99554.43;;;20.07;35.82
67803;BME280;72185;51.378;-1.342;2023-08-30T05:40:53;99551.98;;;20.54;35.35
67803;BME280;72185;51.378;-1.342;2023-08-30T05:43:19;99553.09;;;20.47;35.86
67803;BME280;72185;51.378;-1.342;2023-08-30T05:45:44;99552.26;;;20.54;35.54
67803;BME280;72185;51.378;-1.342;2023-08-30T05:48:10;99549.88;;;20.02;36.20
67803;BME280;72185;51.378;-1.342;2023-08-30T05:50:35;99546.18;;;19.99;36.09
67803;BME280;72185;51.378;-1.342;2023-08-30T05:53:01;99542.29;;;20.63;35.63
67803;BME280;72185;51.378;-1.342;2023-08-30T05:55:26;99540.74;;;20.22;35.93
67803;BME280;72185;51.378;-1.342;2023-08-30T05:57:52;99542.96;;;20.30;35.94
67803;BME280;72185;51.378;-1.342;2023-08-30T06:00:17;99541.81;;;19.97;35.86
67803;BME280;72185;51.378;-1.342;2023-08-30T06:02:42;99541.79;;;19.70;35.89
67803;BME280;72185;51.378;-1.342;2023-08-30T06:05:09;99544.36;;;19.96;36.04
67803;BME280;72185;51.378;-1.342;2023-08-30T06:07:33;99540.58;;;20.43;35.60
67803;BME280;72185;51.378;-1.342;2023-08-30T06:09:59;99538.33;;;20.33;35.56
67803;BME280;72185;51.378;-1.342;2023-08-30T06:12:24;99541.82;;;20.09;36.22
67803;BME280;72185;51.378;-1.342;2023-08-30T06:14:50;99548.60;;;19.95;36.05
67803;BME280;72185;51.378;-1.342;2023-08-30T06:17:15;99551.75;;;20.01;35.96
67803;BME280;72185;51.378;-1.342;2023-08-30T06:19:41;99552.72;;;20.51;35.62
67803;BME280;72185;51.378;-1.342;2023-08-30T06:22:06;99554.24;;;19.92;35.82
67803;BME280;72185;51.378;-1.342;2023-08-30T06:24:32;99553.90;;;19.88;36.08
67803;BME280;72185;51.378;-1.342;2023-08-30T06:26:57;99554.86;;;19.47;36.70
67803;BME280;72185;51.378;-1.342;2023-08-30T06:29:23;99556.11;;;19.84;36.36
67803;BME280;72185;51.378;-1.342;2023-08-30T06:31:48;99562.93;;;19.24;36.90
67803;BME280;72185;51.378;-1.342;2023-08-30T06:34:13;99554.86;;;19.93;36.23
67803;BME280;72185;51.378;-1.342;2023-08-30T06:36:39;99554.54;;;19.08;37.01
67803;BME280;72185;51.378;-1.342;2023-08-30T06:39:04;99548.14;;;20.14;36.16
67803;BME280;72185;51.378;-1.342;2023-08-30T06:41:30;99556.49;;;19.23;37.28
67803;BME280;72185;51.378;-1.342;2023-08-30T06:43:55;99556.10;;;19.65;36.29
67803;BME280;72185;51.378;-1.342;2023-08-30T06:46:21;99555.34;;;19.57;36.80
67803;BME280;72185;51.378;-1.342;2023-08-30T06:48:46;99552.64;;;19.68;36.16
67803;BME280;72185;51.378;-1.342;2023-08-30T06:51:12;99555.38;;;19.48;36.50
67803;BME280;72185;51.378;-1.342;2023-08-30T06:53:37;99558.34;;;19.37;36.81
67803;BME280;72185;51.378;-1.342;2023-08-30T06:56:03;99559.62;;;20.12;36.08
67803;BME280;72185;51.378;-1.342;2023-08-30T06:58:29;99556.87;;;19.65;36.71
67803;BME280;72185;51.378;-1.342;2023-08-30T07:00:54;99558.12;;;19.49;37.00
67803;BME280;72185;51.378;-1.342;2023-08-30T07:03:19;99558.81;;;19.64;36.21
67803;BME280;72185;51.378;-1.342;2023-08-30T07:05:45;99562.56;;;20.40;35.79
67803;BME280;72185;51.378;-1.342;2023-08-30T07:08:10;99563.19;;;19.24;36.67
67803;BME280;72185;51.378;-1.342;2023-08-30T07:10:36;99566.20;;;19.84;36.73
67803;BME280;72185;51.378;-1.342;2023-08-30T07:13:01;99571.05;;;20.19;36.30
67803;BME280;72185;51.378;-1.342;2023-08-30T07:15:27;99579.08;;;20.42;35.91
67803;BME280;72185;51.378;-1.342;2023-08-30T07:17:52;99586.04;;;20.05;35.62
67803;BME280;72185;51.378;-1.342;2023-08-30T07:20:17;99590.38;;;20.87;35.33
67803;BME280;72185;51.378;-1.342;2023-08-30T07:22:43;99588.27;;;19.86;35.89
67803;BME280;72185;51.378;-1.342;2023-08-30T07:25:08;99584.82;;;19.81;35.99
67803;BME280;72185;51.378;-1.342;2023-08-30T07:27:34;99589.81;;;19.79;36.42
67803;BME280;72185;51.378;-1.342;2023-08-30T07:29:59;99592.62;;;20.35;35.82
67803;BME280;72185;51.378;-1.342;2023-08-30T07:32:24;99590.60;;;20.40;35.71
67803;BME280;72185;51.378;-1.342;2023-08-30T07:34:50;99592.39;;;20.48;35.71
67803;BME280;72185;51.378;-1.342;2023-08-30T07:37:18;99594.53;;;20.70;35.12
67803;BME280;72185;51.378;-1.342;2023-08-30T07:39:41;99596.04;;;20.41;35.37
67803;BME280;72185;51.378;-1.342;2023-08-30T07:42:06;99592.31;;;21.11;34.80
67803;BME280;72185;51.378;-1.342;2023-08-30T07:44:32;99595.41;;;21.69;34.47
67803;BME280;72185;51.378;-1.342;2023-08-30T07:46:57;99591.32;;;21.69;34.10
67803;BME280;72185;51.378;-1.342;2023-08-30T07:49:23;99589.10;;;21.60;33.93
67803;BME280;72185;51.378;-1.342;2023-08-30T07:51:48;99590.80;;;21.72;33.84
67803;BME280;72185;51.378;-1.342;2023-08-30T07:54:14;99588.24;;;22.07;33.70
67803;BME280;72185;51.378;-1.342;2023-08-30T07:56:39;99587.89;;;22.14;33.64
67803;BME280;72185;51.378;-1.342;2023-08-30T07:59:04;99586.19;;;21.99;33.61
67803;BME280;72185;51.378;-1.342;2023-08-30T08:01:30;99584.75;;;21.99;33.62
67803;BME280;72185;51.378;-1.342;2023-08-30T08:03:55;99586.75;;;21.98;33.64
67803;BME280;72185;51.378;-1.342;2023-08-30T08:06:21;99585.14;;;22.03;33.62
67803;BME280;72185;51.378;-1.342;2023-08-30T08:08:46;99586.74;;;22.16;33.53
67803;BME280;72185;51.378;-1.342;2023-08-30T08:11:12;99592.11;;;21.98;33.52
67803;BME280;72185;51.378;-1.342;2023-08-30T08:13:37;99586.25;;;22.20;33.54
67803;BME280;72185;51.378;-1.342;2023-08-30T08:16:03;99584.70;;;22.36;33.41
67803;BME280;72185;51.378;-1.342;2023-08-30T08:18:28;99579.67;;;22.47;33.32
67803;BME280;72185;51.378;-1.342;2023-08-30T08:20:54;99580.64;;;22.46;33.38
67803;BME280;72185;51.378;-1.342;2023-08-30T08:23:19;99582.38;;;22.62;33.45
67803;BME280;72185;51.378;-1.342;2023-08-30T08:25:44;99583.45;;;22.55;33.33
67803;BME280;72185;51.378;-1.342;2023-08-30T08:28:10;99587.42;;;22.26;33.36
67803;BME280;72185;51.378;-1.342;2023-08-30T08:30:36;99585.89;;;22.65;33.29
67803;BME280;72185;51.378;-1.342;2023-08-30T08:33:01;99587.41;;;22.38;33.37
67803;BME280;72185;51.378;-1.342;2023-08-30T08:35:26;99594.45;;;22.77;33.20
67803;BME280;72185;51.378;-1.342;2023-08-30T08:37:52;99591.25;;;22.75;33.19
67803;BME280;72185;51.378;-1.342;2023-08-30T08:40:17;99594.62;;;22.87;33.09
67803;BME280;72185;51.378;-1.342;2023-08-30T08:42:43;99598.17;;;22.64;33.06
67803;BME280;72185;51.378;-1.342;2023-08-30T08:45:10;99595.08;;;22.87;33.09
67803;BME280;72185;51.378;-1.342;2023-08-30T08:47:33;99597.47;;;22.67;33.08
67803;BME280;72185;51.378;-1.342;2023-08-30T08:49:59;99594.34;;;22.63;33.13
67803;BME280;72185;51.378;-1.342;2023-08-30T08:52:24;99592.50;;;22.36;33.16
67803;BME280;72185;51.378;-1.342;2023-08-30T08:54:50;99589.72;;;22.86;33.18
67803;BME280;72185;51.378;-1.342;2023-08-30T08:57:15;99590.24;;;22.66;33.09
67803;BME280;72185;51.378;-1.342;2023-08-30T08:59:40;99594.24;;;22.84;33.15
67803;BME280;72185;51.378;-1.342;2023-08-30T09:02:06;99591.23;;;22.59;33.22
67803;BME280;72185;51.378;-1.342;2023-08-30T09:04:32;99589.02;;;22.83;33.19
67803;BME280;72185;51.378;-1.342;2023-08-30T09:06:58;99589.05;;;22.86;33.19
67803;BME280;72185;51.378;-1.342;2023-08-30T09:09:22;99588.28;;;22.64;33.15
67803;BME280;72185;51.378;-1.342;2023-08-30T09:11:48;99588.08;;;22.35;33.18
67803;BME280;72185;51.378;-1.342;2023-08-30T09:14:13;99588.01;;;22.60;33.36
67803;BME280;72185;51.378;-1.342;2023-08-30T09:16:38;99587.03;;;22.67;33.23
67803;BME280;72185;51.378;-1.342;2023-08-30T09:19:04;99582.37;;;22.86;33.28
67803;BME280;72185;51.378;-1.342;2023-08-30T09:21:30;99585.85;;;23.00;33.14
67803;BME280;72185;51.378;-1.342;2023-08-30T09:23:59;99580.79;;;22.73;33.25
67803;BME280;72185;51.378;-1.342;2023-08-30T09:26:20;99586.19;;;23.04;33.00
67803;BME280;72185;51.378;-1.342;2023-08-30T09:28:46;99586.55;;;22.99;33.02
67803;BME280;72185;51.378;-1.342;2023-08-30T09:31:17;99588.24;;;22.81;33.00
67803;BME280;72185;51.378;-1.342;2023-08-30T09:33:36;99584.33;;;22.50;33.28
67803;BME280;72185;51.378;-1.342;2023-08-30T09:36:02;99581.99;;;22.85;33.18
67803;BME280;72185;51.378;-1.342;2023-08-30T09:38:28;99577.69;;;22.90;33.18
67803;BME280;72185;51.378;-1.342;2023-08-30T09:43:19;99580.65;;;22.70;32.89
67803;BME280;72185;51.378;-1.342;2023-08-30T09:45:43;99582.81;;;22.71;33.04
67803;BME280;72185;51.378;-1.342;2023-08-30T09:48:09;99581.51;;;22.66;33.14
67803;BME280;72185;51.378;-1.342;2023-08-30T09:50:35;99581.59;;;22.61;33.17
67803;BME280;72185;51.378;-1.342;2023-08-30T09:53:01;99580.95;;;22.76;32.92
67803;BME280;72185;51.378;-1.342;2023-08-30T09:55:25;99583.64;;;23.18;33.12
67803;BME280;72185;51.378;-1.342;2023-08-30T09:57:51;99582.68;;;22.70;33.10
67803;BME280;72185;51.378;-1.342;2023-08-30T10:00:16;99584.12;;;22.68;33.16
67803;BME280;72185;51.378;-1.342;2023-08-30T10:02:42;99585.77;;;22.74;33.11
67803;BME280;72185;51.378;-1.342;2023-08-30T10:05:08;99585.34;;;22.70;33.14
67803;BME280;72185;51.378;-1.342;2023-08-30T10:07:32;99583.82;;;22.80;32.98
67803;BME280;72185;51.378;-1.342;2023-08-30T10:09:58;99581.10;;;22.98;33.11
67803;BME280;72185;51.378;-1.342;2023-08-30T10:12:24;99579.81;;;23.22;33.16
67803;BME280;72185;51.378;-1.342;2023-08-30T10:14:49;99580.28;;;22.96;33.18
67803;BME280;72185;51.378;-1.342;2023-08-30T10:17:17;99580.60;;;22.82;32.93
67803;BME280;72185;51.378;-1.342;2023-08-30T10:19:40;99580.28;;;22.81;32.96
67803;BME280;72185;51.378;-1.342;2023-08-30T10:22:06;99582.00;;;23.02;33.08
67803;BME280;72185;51.378;-1.342;2023-08-30T10:24:33;99579.52;;;23.00;33.19
67803;BME280;72185;51.378;-1.342;2023-08-30T10:26:56;99578.96;;;23.04;33.05
67803;BME280;72185;51.378;-1.342;2023-08-30T10:29:21;99576.09;;;23.03;33.17
67803;BME280;72185;51.378;-1.342;2023-08-30T10:31:47;99581.43;;;22.82;32.96
67803;BME280;72185;51.378;-1.342;2023-08-30T10:34:14;99579.42;;;22.79;33.07
67803;BME280;72185;51.378;-1.342;2023-08-30T10:36:37;99580.75;;;22.75;33.23
67803;BME280;72185;51.378;-1.342;2023-08-30T10:39:11;99574.23;;;23.31;33.12
67803;BME280;72185;51.378;-1.342;2023-08-30T10:41:28;99576.38;;;23.31;33.13
67803;BME280;72185;51.378;-1.342;2023-08-30T10:43:55;99580.23;;;23.19;33.01
67803;BME280;72185;51.378;-1.342;2023-08-30T10:48:44;99577.01;;;22.99;32.86
67803;BME280;72185;51.378;-1.342;2023-08-30T10:51:19;99575.27;;;22.93;32.97
67803;BME280;72185;51.378;-1.342;2023-08-30T10:53:35;99581.97;;;23.22;32.89
67803;BME280;72185;51.378;-1.342;2023-08-30T10:56:09;99585.35;;;23.39;32.93
67803;BME280;72185;51.378;-1.342;2023-08-30T10:58:26;99580.31;;;22.85;32.98
67803;BME280;72185;51.378;-1.342;2023-08-30T11:00:52;99585.28;;;22.86;33.00
67803;BME280;72185;51.378;-1.342;2023-08-30T11:03:17;99585.45;;;22.85;33.01
67803;BME280;72185;51.378;-1.342;2023-08-30T11:05:42;99584.56;;;22.79;33.20
67803;BME280;72185;51.378;-1.342;2023-08-30T11:08:10;99585.55;;;22.83;33.13
67803;BME280;72185;51.378;-1.342;2023-08-30T11:10:33;99582.53;;;23.16;32.96
67803;BME280;72185;51.378;-1.342;2023-08-30T11:12:59;99587.09;;;23.35;32.99
67803;BME280;72185;51.378;-1.342;2023-08-30T11:15:26;99585.44;;;22.87;32.97
67803;BME280;72185;51.378;-1.342;2023-08-30T11:17:49;99584.78;;;22.85;32.98
67803;BME280;72185;51.378;-1.342;2023-08-30T11:20:16;99584.71;;;23.26;33.06
67803;BME280;72185;51.378;-1.342;2023-08-30T11:22:42;99585.36;;;22.77;33.08
67803;BME280;72185;51.378;-1.342;2023-08-30T11:25:08;99583.76;;;22.94;33.17
67803;BME280;72185;51.378;-1.342;2023-08-30T11:27:31;99585.46;;;22.98;33.12
67803;BME280;72185;51.378;-1.342;2023-08-30T11:29:59;99586.26;;;22.66;33.18
67803;BME280;72185;51.378;-1.342;2023-08-30T11:32:22;99582.85;;;22.67;33.18
67803;BME280;72185;51.378;-1.342;2023-08-30T11:34:56;99581.77;;;22.63;33.22
67803;BME280;72185;51.378;-1.342;2023-08-30T11:37:13;99579.78;;;22.61;33.23
67803;BME280;72185;51.378;-1.342;2023-08-30T11:39:39;99578.95;;;22.63;33.24
67803;BME280;72185;51.378;-1.342;2023-08-30T11:42:04;99575.08;;;22.61;33.26
67803;BME280;72185;51.378;-1.342;2023-08-30T11:44:29;99576.72;;;23.19;33.14
67803;BME280;72185;51.378;-1.342;2023-08-30T11:46:58;99576.69;;;22.65;33.18
67803;BME280;72185;51.378;-1.342;2023-08-30T11:49:20;99579.03;;;22.64;33.18
67803;BME280;72185;51.378;-1.342;2023-08-30T11:51:46;99578.47;;;22.88;33.20
67803;BME280;72185;51.378;-1.342;2023-08-30T11:54:11;99578.44;;;22.91;33.18
67803;BME280;72185;51.378;-1.342;2023-08-30T11:56:37;99577.34;;;22.85;33.24
67803;BME280;72185;51.378;-1.342;2023-08-30T11:59:02;99575.59;;;22.59;33.22
67803;BME280;72185;51.378;-1.342;2023-08-30T12:01:27;99574.56;;;22.57;33.24
67803;BME280;72185;51.378;-1.342;2023-08-30T12:03:53;99570.47;;;22.80;33.27
67803;BME280;72185;51.378;-1.342;2023-08-30T12:06:18;99576.77;;;22.56;33.26
67803;BME280;72185;51.378;-1.342;2023-08-30T12:08:44;99567.38;;;22.47;33.34
67803;BME280;72185;51.378;-1.342;2023-08-30T12:11:17;99566.31;;;22.81;33.29
67803;BME280;72185;51.378;-1.342;2023-08-30T12:13:34;99563.23;;;22.84;33.26
67803;BME280;72185;51.378;-1.342;2023-08-30T12:16:01;99565.76;;;22.62;33.20
67803;BME280;72185;51.378;-1.342;2023-08-30T12:18:26;99567.48;;;22.65;33.14
67803;BME280;72185;51.378;-1.342;2023-08-30T12:20:53;99568.24;;;22.60;33.19
67803;BME280;72185;51.378;-1.342;2023-08-30T12:23:20;99569.49;;;22.56;33.24
67803;BME280;72185;51.378;-1.342;2023-08-30T12:25:41;99569.66;;;22.56;33.24
67803;BME280;72185;51.378;-1.342;2023-08-30T12:28:07;99571.03;;;22.55;33.24
67803;BME280;72185;51.378;-1.342;2023-08-30T12:30:32;99574.44;;;22.75;33.31
67803;BME280;72185;51.378;-1.342;2023-08-30T12:33:01;99574.85;;;22.73;33.34
67803;BME280;72185;51.378;-1.342;2023-08-30T12:35:24;99576.20;;;22.78;33.27
67803;BME280;72185;51.378;-1.342;2023-08-30T12:37:49;99577.80;;;22.80;33.25
67803;BME280;72185;51.378;-1.342;2023-08-30T12:40:14;99580.81;;;22.57;33.20
67803;BME280;72185;51.378;-1.342;2023-08-30T12:42:39;99581.92;;;22.57;33.20
67803;BME280;72185;51.378;-1.342;2023-08-30T12:45:06;99581.94;;;22.80;33.23